Time;durP1;ratioP1;P1;durP2;ratioP2;P2;SDS_P1;SDS_P2;PMS_P1;PMS_P2;Temp;Humidity;BMP_temperature;BMP_pressure;BME280_temperature;BME280_humidity;BME280_pressure;Samples;Min_cycle;Max_cycle;Signal;HPM_P1;HPM_P2
2021/08/31 00:00:37;;;;;;;;;;;13.70;99.90;;;;;;5016304;28;19925;-72
2021/08/31 00:03:04;;;;;;;;;;;13.70;99.90;;;;;;4999805;28;19972;-72
2021/08/31 00:05:36;;;;;;;;;;;13.70;99.90;;;;;;4999990;28;19931;-72
2021/08/31 00:08:02;;;;;;;;;;;13.70;99.90;;;;;;4999724;28;19976;-72
2021/08/31 00:10:29;;;;;;;;;;;13.70;99.90;;;;;;5016201;28;20024;-72
2021/08/31 00:13:01;;;;;;;;;;;13.70;99.90;;;;;;5000509;28;19925;-73
2021/08/31 00:15:32;;;;;;;;;;;13.70;99.90;;;;;;5033579;28;20550;-73
2021/08/31 00:18:02;;;;;;;;;;;13.70;99.90;;;;;;5033330;28;19968;-73
2021/08/31 00:20:34;;;;;;;;;;;13.70;99.90;;;;;;5003154;28;20290;-73
2021/08/31 00:23:07;;;;;;;;;;;13.70;99.90;;;;;;5017622;28;20336;-73
2021/08/31 00:25:34;;;;;;;;;;;13.70;99.90;;;;;;5014692;28;20024;-72
2021/08/31 00:28:05;;;;;;;;;;;13.70;99.90;;;;;;5021846;28;20350;-72
2021/08/31 00:30:32;;;;;;;;;;;13.70;99.90;;;;;;5027137;28;19961;-72
2021/08/31 00:33:03;;;;;;;;;;;13.70;99.90;;;;;;5030154;28;20331;-72
2021/08/31 00:35:30;;;;;;;;;;;13.70;99.90;;;;;;5018788;28;20031;-72
2021/08/31 00:38:02;;;;;;;;;;;13.70;99.90;;;;;;5021957;28;20364;-72
2021/08/31 00:40:29;;;;;;;;;;;13.70;99.90;;;;;;5015131;28;20362;-74
2021/08/31 00:43:01;;;;;;;;;;;13.70;99.90;;;;;;5016333;28;19993;-72
2021/08/31 00:45:28;;;;;;;;;;;13.70;99.90;;;;;;5015591;28;20028;-75
2021/08/31 00:47:54;;;;;;;;;;;13.70;99.90;;;;;;5033935;28;20011;-75
2021/08/31 00:50:26;;;;;;;;;;;13.70;99.90;;;;;;5016770;28;20302;-75
2021/08/31 00:52:53;;;;;;;;;;;13.70;99.90;;;;;;5016609;28;20299;-72
2021/08/31 00:55:24;;;;;;;;;;;13.70;99.90;;;;;;5016231;28;20033;-72
2021/08/31 00:57:51;;;;;;;;;;;13.70;99.90;;;;;;5016850;28;19925;-72
2021/08/31 01:00:23;;;;;;;;;;;13.70;99.90;;;;;;5000833;28;19933;-72
2021/08/31 01:02:50;;;;;;;;;;;13.70;99.90;;;;;;5016320;28;19968;-72
2021/08/31 01:05:22;;;;;;;;;;;13.70;99.90;;;;;;5016627;28;20028;-72
2021/08/31 01:07:53;;;;;;;;;;;13.70;99.90;;;;;;5015481;28;19936;-72
2021/08/31 01:10:26;;;;;;;;;;;13.70;99.90;;;;;;5033151;28;20012;-72
2021/08/31 01:12:55;;;;;;;;;;;13.60;99.90;;;;;;5015347;28;20008;-72
2021/08/31 01:15:22;;;;;;;;;;;13.60;99.90;;;;;;4998789;28;19959;-73
2021/08/31 01:17:49;;;;;;;;;;;13.60;99.90;;;;;;4999004;28;20011;-73
2021/08/31 01:20:21;;;;;;;;;;;13.60;99.90;;;;;;5000069;28;19931;-73
2021/08/31 01:22:59;;;;;;;;;;;13.70;99.90;;;;;;5015506;28;19932;-72
2021/08/31 01:25:25;;;;;;;;;;;13.70;99.90;;;;;;4998965;28;20024;-72
2021/08/31 01:27:57;;;;;;;;;;;13.60;99.90;;;;;;5016512;28;20011;-72
2021/08/31 01:30:24;;;;;;;;;;;13.60;99.90;;;;;;5015219;28;20302;-72
2021/08/31 01:32:56;;;;;;;;;;;13.60;99.90;;;;;;4999528;28;19936;-72
2021/08/31 01:35:22;;;;;;;;;;;13.60;99.90;;;;;;5014142;28;19960;-72
2021/08/31 01:37:54;;;;;;;;;;;13.60;99.90;;;;;;4998621;28;20414;-72
2021/08/31 01:40:26;;;;;;;;;;;13.60;99.90;;;;;;4999227;28;20357;-72
2021/08/31 01:42:52;;;;;;;;;;;13.60;99.90;;;;;;4998918;28;20019;-73
2021/08/31 01:45:19;;;;;;;;;;;13.60;99.90;;;;;;5014532;28;20056;-72
2021/08/31 01:47:46;;;;;;;;;;;13.60;99.90;;;;;;4998711;28;19979;-72
2021/08/31 01:50:17;;;;;;;;;;;13.60;99.90;;;;;;5015850;28;19925;-72
2021/08/31 01:52:44;;;;;;;;;;;13.60;99.90;;;;;;4998746;28;20044;-72
2021/08/31 01:55:11;;;;;;;;;;;13.60;99.90;;;;;;5032197;28;20362;-72
2021/08/31 01:57:42;;;;;;;;;;;13.60;99.90;;;;;;5014875;28;19925;-72
2021/08/31 02:00:09;;;;;;;;;;;13.60;99.90;;;;;;5014796;28;19976;-72
2021/08/31 02:02:41;;;;;;;;;;;13.60;99.90;;;;;;5014700;28;20016;-72
2021/08/31 02:05:12;;;;;;;;;;;13.60;99.90;;;;;;5014389;28;20484;-72
2021/08/31 02:07:39;;;;;;;;;;;13.60;99.90;;;;;;5014918;28;20399;-72
2021/08/31 02:10:06;;;;;;;;;;;13.60;99.90;;;;;;5014905;28;19983;-72
2021/08/31 02:12:38;;;;;;;;;;;13.60;99.90;;;;;;5032380;28;19925;-72
2021/08/31 02:15:05;;;;;;;;;;;13.60;99.90;;;;;;4997419;28;20031;-72
2021/08/31 02:17:31;;;;;;;;;;;13.70;99.90;;;;;;5014351;28;20365;-72
2021/08/31 02:19:58;;;;;;;;;;;13.60;99.90;;;;;;4998202;28;20020;-72
2021/08/31 02:22:25;;;;;;;;;;;13.60;99.90;;;;;;5014669;28;19926;-72
2021/08/31 02:24:52;;;;;;;;;;;13.60;99.90;;;;;;5014764;28;20023;-72
2021/08/31 02:27:19;;;;;;;;;;;13.60;99.90;;;;;;5014168;28;20023;-72
2021/08/31 02:29:50;;;;;;;;;;;13.60;99.90;;;;;;5014292;28;19925;-72
2021/08/31 02:32:23;;;;;;;;;;;13.60;99.90;;;;;;4999063;28;19925;-72
2021/08/31 02:34:50;;;;;;;;;;;13.60;99.90;;;;;;5014408;28;20020;-72
2021/08/31 02:37:21;;;;;;;;;;;13.60;99.90;;;;;;5014141;28;20024;-72
2021/08/31 02:39:48;;;;;;;;;;;13.60;99.90;;;;;;5014277;28;20360;-72
2021/08/31 02:42:20;;;;;;;;;;;13.60;99.90;;;;;;4998822;28;20023;-72
2021/08/31 02:44:46;;;;;;;;;;;13.60;99.90;;;;;;5014300;28;20032;-72
2021/08/31 02:47:18;;;;;;;;;;;13.50;99.90;;;;;;4998396;28;20019;-72
2021/08/31 02:49:50;;;;;;;;;;;13.50;99.90;;;;;;5013775;28;19932;-72
2021/08/31 02:52:16;;;;;;;;;;;13.50;99.90;;;;;;5014234;28;20019;-72
2021/08/31 02:54:48;;;;;;;;;;;13.40;99.90;;;;;;5014220;28;20484;-72
2021/08/31 02:57:20;;;;;;;;;;;13.40;99.90;;;;;;4998435;28;20092;-72
2021/08/31 02:59:46;;;;;;;;;;;13.50;99.90;;;;;;5013991;28;20398;-72
2021/08/31 03:02:13;;;;;;;;;;;13.40;99.90;;;;;;5031836;28;19995;-72
2021/08/31 03:04:42;;;;;;;;;;;13.40;99.90;;;;;;5013984;28;19960;-73
2021/08/31 03:07:10;;;;;;;;;;;13.40;99.90;;;;;;5013639;28;19967;-72
2021/08/31 03:09:42;;;;;;;;;;;13.50;99.90;;;;;;5014041;28;20008;-73
2021/08/31 03:12:14;;;;;;;;;;;13.50;99.90;;;;;;5014985;28;19925;-73
2021/08/31 03:14:41;;;;;;;;;;;13.50;99.90;;;;;;5014079;28;19948;-74
2021/08/31 03:17:14;;;;;;;;;;;13.50;99.90;;;;;;4998337;28;19932;-73
2021/08/31 03:19:45;;;;;;;;;;;13.50;99.90;;;;;;5014116;28;19929;-73
2021/08/31 03:22:17;;;;;;;;;;;13.50;99.90;;;;;;5014039;28;19984;-73
2021/08/31 03:24:49;;;;;;;;;;;13.50;99.90;;;;;;4998393;28;19925;-73
2021/08/31 03:27:15;;;;;;;;;;;13.50;99.90;;;;;;4997347;28;20011;-73
2021/08/31 03:29:47;;;;;;;;;;;13.50;99.90;;;;;;5013606;28;19932;-73
2021/08/31 03:32:18;;;;;;;;;;;13.50;99.90;;;;;;5031611;28;19979;-73
2021/08/31 03:34:47;;;;;;;;;;;13.40;99.90;;;;;;4997717;28;20020;-73
2021/08/31 03:37:13;;;;;;;;;;;13.50;99.90;;;;;;5013653;28;20007;-73
2021/08/31 03:39:45;;;;;;;;;;;13.40;99.90;;;;;;5013957;28;19967;-73
2021/08/31 03:42:12;;;;;;;;;;;13.40;99.90;;;;;;5014054;28;20017;-73
2021/08/31 03:44:38;;;;;;;;;;;13.40;99.90;;;;;;4997426;28;20012;-73
2021/08/31 03:47:10;;;;;;;;;;;13.40;99.90;;;;;;4997850;28;19925;-73
2021/08/31 03:49:41;;;;;;;;;;;13.40;99.90;;;;;;4997784;28;20035;-72
2021/08/31 03:52:10;;;;;;;;;;;13.40;99.90;;;;;;4996907;28;19931;-73
2021/08/31 03:54:36;;;;;;;;;;;13.40;99.90;;;;;;5013121;28;19972;-73
2021/08/31 03:57:08;;;;;;;;;;;13.40;99.90;;;;;;5030283;28;20384;-73
2021/08/31 03:59:40;;;;;;;;;;;13.40;99.90;;;;;;5013057;28;20575;-73
2021/08/31 04:02:12;;;;;;;;;;;13.40;99.90;;;;;;5015831;28;20408;-76
2021/08/31 04:04:39;;;;;;;;;;;13.40;99.90;;;;;;5013153;28;19980;-72
2021/08/31 04:07:11;;;;;;;;;;;13.40;99.90;;;;;;5018799;28;20004;-73
2021/08/31 04:09:43;;;;;;;;;;;13.40;99.90;;;;;;4995010;28;19925;-73
2021/08/31 04:12:14;;;;;;;;;;;13.30;99.90;;;;;;4996247;28;19926;-73
2021/08/31 04:14:46;;;;;;;;;;;13.30;99.90;;;;;;4980256;28;19929;-73
2021/08/31 04:17:18;;;;;;;;;;;13.30;99.90;;;;;;5013794;28;19932;-73
2021/08/31 04:19:44;;;;;;;;;;;13.40;99.90;;;;;;4996228;28;19976;-73
2021/08/31 04:22:11;;;;;;;;;;;13.40;99.90;;;;;;4979460;28;19948;-73
2021/08/31 04:24:38;;;;;;;;;;;13.30;99.90;;;;;;4995408;28;19953;-72
2021/08/31 04:27:04;;;;;;;;;;;13.30;99.90;;;;;;4994855;28;19926;-72
2021/08/31 04:29:31;;;;;;;;;;;13.40;99.90;;;;;;4995259;28;20012;-73
2021/08/31 04:31:58;;;;;;;;;;;13.40;99.90;;;;;;4979503;28;19968;-73
2021/08/31 04:34:24;;;;;;;;;;;13.40;99.90;;;;;;4996160;28;20031;-72
2021/08/31 04:36:57;;;;;;;;;;;13.40;99.90;;;;;;4995477;28;20012;-73
2021/08/31 04:39:29;;;;;;;;;;;13.40;99.90;;;;;;5033131;28;19925;-72
2021/08/31 04:42:06;;;;;;;;;;;13.40;99.90;;;;;;5015532;28;19925;-73
2021/08/31 04:44:37;;;;;;;;;;;13.40;99.90;;;;;;5015524;28;20035;-73
2021/08/31 04:47:09;;;;;;;;;;;13.40;99.90;;;;;;5032895;28;19936;-73
2021/08/31 04:49:36;;;;;;;;;;;13.30;99.90;;;;;;5015371;28;20028;-72
2021/08/31 04:52:02;;;;;;;;;;;13.20;99.90;;;;;;5015465;28;20020;-73
2021/08/31 04:54:34;;;;;;;;;;;13.20;99.90;;;;;;4999656;28;20406;-73
2021/08/31 04:57:06;;;;;;;;;;;13.20;99.90;;;;;;4999228;28;20491;-73
2021/08/31 04:59:32;;;;;;;;;;;13.20;99.90;;;;;;5032982;28;19971;-73
2021/08/31 05:02:04;;;;;;;;;;;13.20;99.90;;;;;;4999742;28;19925;-72
2021/08/31 05:04:32;;;;;;;;;;;13.20;99.90;;;;;;4998903;28;20024;-73
2021/08/31 05:07:04;;;;;;;;;;;13.20;99.90;;;;;;5015623;28;19996;-73
2021/08/31 05:09:37;;;;;;;;;;;13.30;99.90;;;;;;5015858;28;20025;-73
2021/08/31 05:12:04;;;;;;;;;;;13.40;99.90;;;;;;5014857;28;19979;-73
2021/08/31 05:14:31;;;;;;;;;;;13.40;99.90;;;;;;5015044;28;20024;-73
2021/08/31 05:17:03;;;;;;;;;;;13.40;99.90;;;;;;5014476;28;20008;-73
2021/08/31 05:19:35;;;;;;;;;;;13.50;99.90;;;;;;5032563;28;20016;-73
2021/08/31 05:22:02;;;;;;;;;;;13.50;99.90;;;;;;5014928;28;19929;-72
2021/08/31 05:24:29;;;;;;;;;;;13.50;99.90;;;;;;5015002;28;19960;-73
2021/08/31 05:26:59;;;;;;;;;;;13.50;99.90;;;;;;4998202;28;20020;-72
2021/08/31 05:29:25;;;;;;;;;;;13.50;99.90;;;;;;4995054;28;20012;-72
2021/08/31 05:31:57;;;;;;;;;;;13.50;99.90;;;;;;5014569;28;20403;-72
2021/08/31 05:34:28;;;;;;;;;;;13.50;99.90;;;;;;4999237;28;20112;-73
2021/08/31 05:37:00;;;;;;;;;;;13.50;99.90;;;;;;5015227;28;20379;-72
2021/08/31 05:39:35;;;;;;;;;;;13.60;99.90;;;;;;5032244;28;20035;-72
2021/08/31 05:42:09;;;;;;;;;;;13.60;99.90;;;;;;5015323;28;20452;-72
2021/08/31 05:44:37;;;;;;;;;;;13.70;99.90;;;;;;5014409;28;20020;-72
2021/08/31 05:47:05;;;;;;;;;;;13.70;99.90;;;;;;5050432;28;20011;-72
2021/08/31 05:49:36;;;;;;;;;;;13.70;99.90;;;;;;5035090;28;20139;-72
2021/08/31 05:52:10;;;;;;;;;;;13.70;99.90;;;;;;5034278;28;19931;-72
2021/08/31 05:54:37;;;;;;;;;;;13.70;99.90;;;;;;5034066;28;20409;-73
2021/08/31 05:57:09;;;;;;;;;;;13.70;99.90;;;;;;5039764;28;20015;-73
2021/08/31 05:59:42;;;;;;;;;;;13.70;99.90;;;;;;5018727;28;19947;-72
2021/08/31 06:02:09;;;;;;;;;;;13.70;99.90;;;;;;5012579;28;20020;-73
2021/08/31 06:04:41;;;;;;;;;;;13.70;99.90;;;;;;4998169;28;19925;-72
2021/08/31 06:07:13;;;;;;;;;;;13.70;99.90;;;;;;5005682;28;20360;-73
2021/08/31 06:09:44;;;;;;;;;;;13.70;99.90;;;;;;4995697;28;19952;-74
2021/08/31 06:12:12;;;;;;;;;;;13.70;99.90;;;;;;5010847;28;20419;-73
2021/08/31 06:14:44;;;;;;;;;;;13.70;99.90;;;;;;5028423;28;19929;-72
2021/08/31 06:17:11;;;;;;;;;;;13.70;99.90;;;;;;5033514;28;20012;-72
2021/08/31 06:19:38;;;;;;;;;;;13.70;99.90;;;;;;5031503;28;19968;-73
2021/08/31 06:22:05;;;;;;;;;;;13.70;99.90;;;;;;4997910;28;20464;-72
2021/08/31 06:24:36;;;;;;;;;;;13.70;99.90;;;;;;5013367;28;20016;-72
2021/08/31 06:27:09;;;;;;;;;;;13.80;99.90;;;;;;4996070;28;19931;-73
2021/08/31 06:29:37;;;;;;;;;;;13.80;99.90;;;;;;4998795;28;20388;-73
2021/08/31 06:32:04;;;;;;;;;;;13.70;99.90;;;;;;5020202;28;20354;-74
2021/08/31 06:34:31;;;;;;;;;;;13.80;99.90;;;;;;5018615;28;20024;-73
2021/08/31 06:37:03;;;;;;;;;;;13.70;99.90;;;;;;5012674;28;19925;-73
2021/08/31 06:39:29;;;;;;;;;;;13.70;99.90;;;;;;5013850;28;20453;-73
2021/08/31 06:42:01;;;;;;;;;;;13.70;99.90;;;;;;5009282;28;20036;-73
2021/08/31 06:44:33;;;;;;;;;;;13.70;99.90;;;;;;4991628;28;20435;-73
2021/08/31 06:47:00;;;;;;;;;;;13.70;99.90;;;;;;5013976;28;20019;-73
2021/08/31 06:49:26;;;;;;;;;;;13.80;99.90;;;;;;4998492;28;20372;-73
2021/08/31 06:51:53;;;;;;;;;;;13.80;99.90;;;;;;5013501;28;20012;-73
2021/08/31 06:54:25;;;;;;;;;;;13.80;99.90;;;;;;5013722;28;20324;-73
2021/08/31 06:56:52;;;;;;;;;;;13.80;99.90;;;;;;4996990;28;20011;-73
2021/08/31 06:59:18;;;;;;;;;;;13.80;99.90;;;;;;4997608;28;19931;-72
2021/08/31 07:01:50;;;;;;;;;;;13.80;99.90;;;;;;4999272;28;19972;-72
2021/08/31 07:04:17;;;;;;;;;;;13.80;99.90;;;;;;4998019;28;19964;-72
2021/08/31 07:06:43;;;;;;;;;;;13.80;99.90;;;;;;4997633;28;20016;-72
2021/08/31 07:09:10;;;;;;;;;;;13.80;99.90;;;;;;4997527;28;19956;-72
2021/08/31 07:11:41;;;;;;;;;;;13.80;99.90;;;;;;4992436;28;19932;-72
2021/08/31 07:14:13;;;;;;;;;;;13.80;99.90;;;;;;5015585;28;20012;-72
2021/08/31 07:16:45;;;;;;;;;;;13.80;99.90;;;;;;4994383;28;19933;-72
2021/08/31 07:19:11;;;;;;;;;;;13.80;99.90;;;;;;5011482;28;19973;-72
2021/08/31 07:21:38;;;;;;;;;;;13.80;99.90;;;;;;4995133;28;19925;-72
2021/08/31 07:24:10;;;;;;;;;;;13.90;99.90;;;;;;5012332;28;20388;-72
2021/08/31 07:26:36;;;;;;;;;;;13.90;99.90;;;;;;5014588;28;20023;-72
2021/08/31 07:29:08;;;;;;;;;;;13.90;99.90;;;;;;5014458;28;20566;-72
2021/08/31 07:31:35;;;;;;;;;;;14.00;99.90;;;;;;5026756;28;19977;-72
2021/08/31 07:34:01;;;;;;;;;;;14.00;99.90;;;;;;5031243;28;20028;-72
2021/08/31 07:36:28;;;;;;;;;;;14.00;99.90;;;;;;5025584;28;20056;-72
2021/08/31 07:38:55;;;;;;;;;;;14.00;99.90;;;;;;5011501;28;19925;-72
2021/08/31 07:41:22;;;;;;;;;;;14.00;99.90;;;;;;4997362;28;20020;-72
2021/08/31 07:43:50;;;;;;;;;;;14.10;99.90;;;;;;5019487;28;19975;-72
2021/08/31 07:46:22;;;;;;;;;;;14.00;99.90;;;;;;5017248;28;20300;-72
2021/08/31 07:48:53;;;;;;;;;;;14.10;99.90;;;;;;5019771;28;19926;-72
2021/08/31 07:51:20;;;;;;;;;;;14.20;99.90;;;;;;5017328;28;19979;-72
2021/08/31 07:53:51;;;;;;;;;;;14.10;99.90;;;;;;5028826;28;20031;-72
2021/08/31 07:56:18;;;;;;;;;;;14.10;99.90;;;;;;5019391;28;20394;-72
2021/08/31 07:58:45;;;;;;;;;;;14.10;99.90;;;;;;5016783;28;20044;-72
2021/08/31 08:01:16;;;;;;;;;;;14.20;99.90;;;;;;5001441;28;19925;-72
2021/08/31 08:03:48;;;;;;;;;;;14.10;99.90;;;;;;5034701;28;19957;-72
2021/08/31 08:06:20;;;;;;;;;;;14.10;99.90;;;;;;5001184;28;20410;-72
2021/08/31 08:08:52;;;;;;;;;;;14.10;99.90;;;;;;5017266;28;19931;-72
2021/08/31 08:11:23;;;;;;;;;;;14.10;99.90;;;;;;5027627;28;20023;-72
2021/08/31 08:13:50;;;;;;;;;;;14.20;99.90;;;;;;5016922;28;19976;-72
2021/08/31 08:16:19;;;;;;;;;;;14.20;99.90;;;;;;5016240;28;20013;-72
2021/08/31 08:18:51;;;;;;;;;;;14.30;99.90;;;;;;5017932;28;19925;-72
2021/08/31 08:21:23;;;;;;;;;;;14.40;99.90;;;;;;5017896;28;20016;-72
2021/08/31 08:23:49;;;;;;;;;;;14.50;99.90;;;;;;5017360;28;19929;-72
2021/08/31 08:26:21;;;;;;;;;;;14.60;99.90;;;;;;5016781;28;20016;-72
2021/08/31 08:28:49;;;;;;;;;;;14.70;99.90;;;;;;5019745;28;20396;-72
2021/08/31 08:31:21;;;;;;;;;;;14.80;99.90;;;;;;5037584;28;20021;-72
2021/08/31 08:33:47;;;;;;;;;;;14.90;99.90;;;;;;5016790;28;19933;-72
2021/08/31 08:36:19;;;;;;;;;;;15.00;99.90;;;;;;5033487;28;20392;-72
2021/08/31 08:38:51;;;;;;;;;;;15.10;99.90;;;;;;5015813;28;20030;-72
2021/08/31 08:41:22;;;;;;;;;;;15.10;99.90;;;;;;5000164;28;20502;-73
2021/08/31 08:43:49;;;;;;;;;;;15.20;99.90;;;;;;5015935;28;20027;-73
2021/08/31 08:46:17;;;;;;;;;;;15.30;99.90;;;;;;5017140;28;20352;-72
2021/08/31 08:48:44;;;;;;;;;;;15.40;99.90;;;;;;5018306;28;19925;-72
2021/08/31 08:51:19;;;;;;;;;;;15.40;99.90;;;;;;5012058;28;19925;-72
2021/08/31 08:53:47;;;;;;;;;;;15.40;99.90;;;;;;5040363;28;20027;-72
2021/08/31 08:56:20;;;;;;;;;;;15.40;99.90;;;;;;5024052;28;19925;-73
2021/08/31 08:58:52;;;;;;;;;;;15.40;99.90;;;;;;5016450;28;19947;-73
2021/08/31 09:01:18;;;;;;;;;;;15.40;99.90;;;;;;5033231;28;19964;-72
2021/08/31 09:03:51;;;;;;;;;;;15.50;99.90;;;;;;4999142;28;19929;-73
2021/08/31 09:06:23;;;;;;;;;;;15.50;99.90;;;;;;5015910;28;20019;-73
2021/08/31 09:08:59;;;;;;;;;;;15.60;99.90;;;;;;5015100;28;19925;-72
2021/08/31 09:11:37;;;;;;;;;;;15.70;99.90;;;;;;5000005;28;19983;-72
2021/08/31 09:14:15;;;;;;;;;;;15.80;99.90;;;;;;5016181;28;20307;-72
2021/08/31 09:16:43;;;;;;;;;;;15.90;99.90;;;;;;5014337;28;20209;-73
2021/08/31 09:19:15;;;;;;;;;;;15.80;99.90;;;;;;5015300;28;20383;-72
2021/08/31 09:21:48;;;;;;;;;;;15.90;99.90;;;;;;5033256;28;20036;-72
2021/08/31 09:24:20;;;;;;;;;;;16.00;99.90;;;;;;5016075;28;20015;-72
2021/08/31 09:26:50;;;;;;;;;;;16.10;99.90;;;;;;5015094;28;20233;-72
2021/08/31 09:29:22;;;;;;;;;;;16.20;99.90;;;;;;5014839;28;19929;-72
2021/08/31 09:31:55;;;;;;;;;;;16.30;99.90;;;;;;5015155;28;19972;-72
2021/08/31 09:34:31;;;;;;;;;;;16.20;99.90;;;;;;5015418;28;19968;-72
2021/08/31 09:37:16;;;;;;;;;;;16.40;99.90;;;;;;5014674;28;19965;-73
2021/08/31 09:39:58;;;;;;;;;;;16.40;99.90;;;;;;5015368;28;20038;-73
2021/08/31 09:42:30;;;;;;;;;;;16.50;99.90;;;;;;4999275;28;20483;-73
2021/08/31 09:45:08;;;;;;;;;;;16.60;99.90;;;;;;4998658;28;19956;-73
2021/08/31 09:47:45;;;;;;;;;;;16.80;99.90;;;;;;5032332;28;19925;-73
2021/08/31 09:50:46;;;;;;;;;;;16.80;99.90;;;;;;5014627;28;20027;-72
2021/08/31 09:53:18;;;;;;;;;;;16.90;99.90;;;;;;4976680;28;20443;-72
2021/08/31 09:56:03;;;;;;;;;;;16.90;99.90;;;;;;5015176;28;19948;-72
2021/08/31 09:58:37;;;;;;;;;;;16.80;99.90;;;;;;5014529;28;20003;-72
2021/08/31 10:01:10;;;;;;;;;;;16.80;99.90;;;;;;5002864;28;19971;-71
2021/08/31 10:03:43;;;;;;;;;;;16.70;99.90;;;;;;5007550;28;20024;-74
2021/08/31 10:06:15;;;;;;;;;;;16.70;99.90;;;;;;4995026;28;19925;-72
2021/08/31 10:08:47;;;;;;;;;;;16.70;99.90;;;;;;5021038;28;19925;-72
2021/08/31 10:11:19;;;;;;;;;;;16.70;99.90;;;;;;5020569;28;20020;-73
2021/08/31 10:13:45;;;;;;;;;;;16.80;99.90;;;;;;5014156;28;19987;-72
2021/08/31 10:16:18;;;;;;;;;;;16.80;99.90;;;;;;5027403;28;19929;-72
2021/08/31 10:18:45;;;;;;;;;;;16.80;99.90;;;;;;5013761;28;19952;-73
2021/08/31 10:21:17;;;;;;;;;;;16.70;99.90;;;;;;4992959;28;19957;-74
2021/08/31 10:23:47;;;;;;;;;;;16.60;99.90;;;;;;5031187;28;20011;-72
2021/08/31 10:26:24;;;;;;;;;;;16.70;99.90;;;;;;5031251;28;19964;-72
2021/08/31 10:29:14;;;;;;;;;;;16.70;99.90;;;;;;5011499;28;19965;-72
2021/08/31 10:31:47;;;;;;;;;;;16.70;99.90;;;;;;5004621;28;19953;-72
2021/08/31 10:34:29;;;;;;;;;;;16.80;99.90;;;;;;5004521;28;20384;-73
2021/08/31 10:37:14;;;;;;;;;;;16.80;99.90;;;;;;5040996;28;20016;-73
2021/08/31 10:39:48;;;;;;;;;;;16.80;99.90;;;;;;5013703;28;19925;-73
2021/08/31 10:42:28;;;;;;;;;;;17.00;99.90;;;;;;4996596;28;20220;-72
2021/08/31 10:44:56;;;;;;;;;;;17.10;99.90;;;;;;5011291;28;20443;-72
2021/08/31 10:47:32;;;;;;;;;;;17.00;99.90;;;;;;5012989;28;19961;-72
2021/08/31 10:50:05;;;;;;;;;;;17.10;99.90;;;;;;5016849;28;19925;-72
2021/08/31 10:52:44;;;;;;;;;;;17.30;99.90;;;;;;5036437;28;20023;-72
2021/08/31 10:55:25;;;;;;;;;;;17.40;99.90;;;;;;5022360;28;20275;-72
2021/08/31 10:57:58;;;;;;;;;;;17.40;99.90;;;;;;4995864;28;19964;-72
2021/08/31 11:00:30;;;;;;;;;;;17.50;99.90;;;;;;5016848;28;19992;-73
2021/08/31 11:03:01;;;;;;;;;;;17.50;99.90;;;;;;5010010;28;20276;-73
2021/08/31 11:05:34;;;;;;;;;;;17.40;99.90;;;;;;5010383;28;19956;-73
2021/08/31 11:08:00;;;;;;;;;;;17.40;99.90;;;;;;5031820;28;19964;-73
2021/08/31 11:10:34;;;;;;;;;;;17.40;99.90;;;;;;5035283;28;20023;-73
2021/08/31 11:13:08;;;;;;;;;;;17.40;99.90;;;;;;5030315;28;19967;-72
2021/08/31 11:15:40;;;;;;;;;;;17.40;99.90;;;;;;5016541;28;19956;-73
2021/08/31 11:18:13;;;;;;;;;;;17.40;99.90;;;;;;5015000;28;20024;-72
2021/08/31 11:20:46;;;;;;;;;;;17.40;99.90;;;;;;5018198;28;20466;-72
2021/08/31 11:23:19;;;;;;;;;;;17.30;99.90;;;;;;5017130;28;19964;-73
2021/08/31 11:25:51;;;;;;;;;;;17.30;99.90;;;;;;5001044;28;20376;-73
2021/08/31 11:28:25;;;;;;;;;;;17.30;99.90;;;;;;5016879;28;19960;-72
2021/08/31 11:31:07;;;;;;;;;;;17.30;99.90;;;;;;5018064;28;20015;-73
2021/08/31 11:33:40;;;;;;;;;;;17.30;99.90;;;;;;5001550;28;20409;-73
2021/08/31 11:36:12;;;;;;;;;;;17.30;99.90;;;;;;5016591;28;19925;-72
2021/08/31 11:38:48;;;;;;;;;;;17.30;99.90;;;;;;5017056;28;19925;-73
2021/08/31 11:41:20;;;;;;;;;;;17.30;99.90;;;;;;5001510;28;20375;-73
2021/08/31 11:43:51;;;;;;;;;;;17.40;99.90;;;;;;5034842;28;20098;-72
2021/08/31 11:46:30;;;;;;;;;;;17.30;99.90;;;;;;5034554;28;19969;-72
2021/08/31 11:49:09;;;;;;;;;;;17.30;99.90;;;;;;5000387;28;20412;-72
2021/08/31 11:51:42;;;;;;;;;;;17.30;99.90;;;;;;5001239;28;20011;-72
2021/08/31 11:54:14;;;;;;;;;;;17.30;99.90;;;;;;5015736;28;19929;-72
2021/08/31 11:56:50;;;;;;;;;;;17.30;99.90;;;;;;5032507;28;20007;-72
2021/08/31 11:59:41;;;;;;;;;;;17.30;99.90;;;;;;5015579;28;20298;-74
2021/08/31 12:02:24;;;;;;;;;;;17.40;99.90;;;;;;5015695;28;19925;-72
2021/08/31 12:04:56;;;;;;;;;;;17.40;99.90;;;;;;5016731;28;19932;-72
2021/08/31 12:07:27;;;;;;;;;;;17.30;99.90;;;;;;5015441;28;20023;-73
2021/08/31 12:10:01;;;;;;;;;;;17.30;99.90;;;;;;5016543;28;20028;-72
2021/08/31 12:12:33;;;;;;;;;;;17.20;99.90;;;;;;5015857;28;19972;-72
2021/08/31 12:15:05;;;;;;;;;;;17.20;99.90;;;;;;5015774;28;19925;-73
2021/08/31 12:17:42;;;;;;;;;;;17.10;99.90;;;;;;5015926;28;19964;-73
2021/08/31 12:20:15;;;;;;;;;;;17.20;99.90;;;;;;5033824;28;20416;-72
2021/08/31 12:22:42;;;;;;;;;;;17.10;99.90;;;;;;5021072;28;20472;-72
2021/08/31 12:25:15;;;;;;;;;;;17.20;99.90;;;;;;5033032;28;19963;-75
2021/08/31 12:27:50;;;;;;;;;;;17.10;99.90;;;;;;5015862;28;20355;-72
2021/08/31 12:30:35;;;;;;;;;;;17.20;99.90;;;;;;5000122;28;20459;-73
2021/08/31 12:33:08;;;;;;;;;;;17.10;99.90;;;;;;5015682;28;20019;-72
2021/08/31 12:35:46;;;;;;;;;;;17.20;99.90;;;;;;4999698;28;19961;-72
2021/08/31 12:38:18;;;;;;;;;;;17.20;99.90;;;;;;5015742;28;19975;-74
2021/08/31 12:40:51;;;;;;;;;;;17.30;99.90;;;;;;4999252;28;20028;-72
2021/08/31 12:43:18;;;;;;;;;;;17.30;99.90;;;;;;5015627;28;20398;-72
2021/08/31 12:45:52;;;;;;;;;;;17.30;99.90;;;;;;4996167;28;19925;-72
2021/08/31 12:48:42;;;;;;;;;;;17.30;99.90;;;;;;4980152;28;20465;-73
2021/08/31 12:51:09;;;;;;;;;;;17.40;99.90;;;;;;5013373;28;20034;-72
2021/08/31 12:53:35;;;;;;;;;;;17.50;99.90;;;;;;4995722;28;20020;-72
2021/08/31 12:56:04;;;;;;;;;;;17.60;99.90;;;;;;4995701;28;19972;-71
2021/08/31 12:58:34;;;;;;;;;;;17.70;99.90;;;;;;4995384;28;19964;-73
2021/08/31 13:01:22;;;;;;;;;;;17.70;99.90;;;;;;4979249;28;19967;-72
2021/08/31 13:03:49;;;;;;;;;;;17.70;99.90;;;;;;4995603;28;19957;-73
2021/08/31 13:06:35;;;;;;;;;;;17.70;99.90;;;;;;4994839;28;19960;-73
2021/08/31 13:09:11;;;;;;;;;;;17.70;99.90;;;;;;5011244;28;20365;-73
2021/08/31 13:11:44;;;;;;;;;;;17.80;99.90;;;;;;5014927;28;19925;-73
2021/08/31 13:14:17;;;;;;;;;;;17.90;99.90;;;;;;4999204;28;20009;-73
2021/08/31 13:16:44;;;;;;;;;;;18.00;99.90;;;;;;4998012;28;19953;-73
2021/08/31 13:19:16;;;;;;;;;;;18.10;99.90;;;;;;5032653;28;20027;-71
2021/08/31 13:21:43;;;;;;;;;;;18.20;99.90;;;;;;5014684;28;20388;-73
2021/08/31 13:24:11;;;;;;;;;;;18.00;99.90;;;;;;5014812;28;19968;-73
2021/08/31 13:26:44;;;;;;;;;;;17.90;99.90;;;;;;5006195;28;19971;-73
2021/08/31 13:29:16;;;;;;;;;;;17.90;99.90;;;;;;4998728;28;20020;-73
2021/08/31 13:31:48;;;;;;;;;;;17.90;99.90;;;;;;5015559;28;20023;-73
2021/08/31 13:34:21;;;;;;;;;;;17.80;99.90;;;;;;5031996;28;19932;-73
2021/08/31 13:36:53;;;;;;;;;;;17.90;99.90;;;;;;4998576;28;20017;-73
2021/08/31 13:39:19;;;;;;;;;;;17.90;99.90;;;;;;5000285;28;20020;-71
2021/08/31 13:41:46;;;;;;;;;;;18.00;99.90;;;;;;5032607;28;19932;-73
2021/08/31 13:44:13;;;;;;;;;;;18.10;99.90;;;;;;5015203;28;20007;-73
2021/08/31 13:46:44;;;;;;;;;;;18.20;99.90;;;;;;5014970;28;19931;-73
2021/08/31 13:49:16;;;;;;;;;;;18.20;99.90;;;;;;5014657;28;19925;-72
2021/08/31 13:51:43;;;;;;;;;;;18.30;99.90;;;;;;5010186;28;20016;-73
2021/08/31 13:54:10;;;;;;;;;;;18.40;99.90;;;;;;4996833;28;19979;-73
2021/08/31 13:56:41;;;;;;;;;;;18.60;99.90;;;;;;4999313;28;19949;-73
2021/08/31 13:59:08;;;;;;;;;;;18.70;99.90;;;;;;5014334;28;20148;-73
2021/08/31 14:01:35;;;;;;;;;;;18.70;99.90;;;;;;4995477;28;20383;-73
2021/08/31 14:04:06;;;;;;;;;;;18.80;99.90;;;;;;5014245;28;20396;-73
2021/08/31 14:06:35;;;;;;;;;;;18.90;99.90;;;;;;5013327;28;19928;-73
2021/08/31 14:09:02;;;;;;;;;;;18.90;99.90;;;;;;5014972;28;20012;-73
2021/08/31 14:11:34;;;;;;;;;;;19.10;99.90;;;;;;5014740;28;20024;-73
2021/08/31 14:14:01;;;;;;;;;;;19.20;99.90;;;;;;5032562;28;20021;-73
2021/08/31 14:16:33;;;;;;;;;;;19.30;99.90;;;;;;5030542;28;20044;-73
2021/08/31 14:19:00;;;;;;;;;;;19.40;99.90;;;;;;5019841;28;19924;-71
2021/08/31 14:21:27;;;;;;;;;;;19.70;99.90;;;;;;5051859;28;19952;-73
2021/08/31 14:23:58;;;;;;;;;;;19.80;99.90;;;;;;5016606;28;20011;-72
2021/08/31 14:26:25;;;;;;;;;;;20.00;99.90;;;;;;5033380;28;19925;-73
2021/08/31 14:28:57;;;;;;;;;;;20.20;99.90;;;;;;5018290;28;20015;-73
2021/08/31 14:31:29;;;;;;;;;;;20.30;99.90;;;;;;5034130;28;20031;-73
2021/08/31 14:34:01;;;;;;;;;;;20.40;99.90;;;;;;5035097;28;19979;-71
2021/08/31 14:36:32;;;;;;;;;;;20.60;99.90;;;;;;5018059;28;19968;-74